createdAt,value
2022-07-28T00:01:14.591Z,18.21
2022-07-28T00:03:47.453Z,18.22
2022-07-28T00:06:15.755Z,18.23
2022-07-28T00:08:44.302Z,18.23
2022-07-28T00:11:12.697Z,18.21
2022-07-28T00:13:41.123Z,18.21
2022-07-28T00:16:09.902Z,18.20
2022-07-28T00:18:38.263Z,18.18
2022-07-28T00:21:06.918Z,18.15
2022-07-28T00:23:39.242Z,18.13
2022-07-28T00:26:10.170Z,18.12
2022-07-28T00:28:39.237Z,18.10
2022-07-28T00:31:09.496Z,18.07
2022-07-28T00:33:40.427Z,18.03
2022-07-28T00:36:11.875Z,18.01
2022-07-28T00:38:44.086Z,17.99
2022-07-28T00:41:20.783Z,17.95
2022-07-28T00:43:52.026Z,17.93
2022-07-28T00:46:24.398Z,17.90
2022-07-28T00:48:55.245Z,17.88
2022-07-28T00:51:25.961Z,17.86
2022-07-28T00:53:56.178Z,17.83
2022-07-28T00:56:24.661Z,17.80
2022-07-28T00:58:53.216Z,17.78
2022-07-28T01:01:23.091Z,17.76
2022-07-28T01:08:09.916Z,17.66
2022-07-28T01:10:50.383Z,17.61
2022-07-28T01:13:21.456Z,17.56
2022-07-28T01:15:55.727Z,17.49
2022-07-28T01:19:23.257Z,17.42
2022-07-28T01:21:52.923Z,17.36
2022-07-28T01:28:54.317Z,17.22
2022-07-28T01:31:26.727Z,17.17
2022-07-28T01:34:07.616Z,17.14
2022-07-28T01:36:55.496Z,17.12
2022-07-28T01:39:28.689Z,17.09
2022-07-28T01:41:59.619Z,17.07
2022-07-28T01:44:30.142Z,17.03
2022-07-28T01:47:00.894Z,17.00
2022-07-28T01:49:31.076Z,16.98
2022-07-28T01:52:01.799Z,16.95
2022-07-28T01:54:32.449Z,16.93
2022-07-28T01:57:01.500Z,16.91
2022-07-28T01:59:31.900Z,16.89
2022-07-28T02:02:01.429Z,16.88
2022-07-28T02:04:32.544Z,16.84
2022-07-28T02:07:04.302Z,16.81
2022-07-28T02:09:35.844Z,16.76
2022-07-28T02:12:06.045Z,16.72
2022-07-28T02:14:36.720Z,16.67
2022-07-28T02:21:12.251Z,16.57
2022-07-28T02:23:43.764Z,16.54
2022-07-28T02:26:15.191Z,16.51
2022-07-28T02:28:52.805Z,16.47
2022-07-28T02:31:26.435Z,16.44
2022-07-28T02:34:02.000Z,16.40
2022-07-28T02:36:35.029Z,16.37
2022-07-28T02:39:10.356Z,16.36
2022-07-28T02:45:38.876Z,16.32
2022-07-28T02:48:11.336Z,16.31
2022-07-28T02:50:41.300Z,16.27
2022-07-28T02:53:15.027Z,16.22
2022-07-28T02:55:48.079Z,16.18
2022-07-28T02:58:21.219Z,16.14
2022-07-28T03:00:52.257Z,16.09
2022-07-28T03:03:21.877Z,16.04
2022-07-28T03:05:50.545Z,15.99
2022-07-28T03:08:19.251Z,15.96
2022-07-28T03:10:47.671Z,15.92
2022-07-28T03:13:16.201Z,15.89
2022-07-28T03:15:45.191Z,15.87
2022-07-28T03:18:13.530Z,15.86
2022-07-28T03:20:41.880Z,15.85
2022-07-28T03:23:11.026Z,15.86
2022-07-28T03:28:58.258Z,15.85
2022-07-28T03:31:28.792Z,15.87
2022-07-28T03:33:57.546Z,15.88
2022-07-28T03:40:33.248Z,15.92
2022-07-28T03:43:06.634Z,15.94
2022-07-28T03:45:36.114Z,15.98
2022-07-28T03:48:09.348Z,16.02
2022-07-28T03:50:38.043Z,16.08
2022-07-28T03:56:32.717Z,16.22
2022-07-28T03:59:01.072Z,16.29
2022-07-28T04:01:29.682Z,16.35
2022-07-28T04:03:58.074Z,16.41
2022-07-28T04:06:26.430Z,16.48
2022-07-28T04:08:54.959Z,16.56
2022-07-28T04:11:23.445Z,16.64
2022-07-28T04:13:51.801Z,16.73
2022-07-28T04:16:20.653Z,16.82
2022-07-28T04:18:51.004Z,16.92
2022-07-28T04:21:19.308Z,17.01
2022-07-28T04:23:47.609Z,17.12
2022-07-28T04:26:17.805Z,17.25
2022-07-28T04:28:46.974Z,17.39
2022-07-28T04:31:15.362Z,17.51
2022-07-28T04:33:43.929Z,17.65
2022-07-28T04:36:12.660Z,17.79
2022-07-28T04:38:41.063Z,17.94
2022-07-28T04:41:09.471Z,18.10
2022-07-28T04:43:38.950Z,18.28
2022-07-28T04:46:08.437Z,18.45
2022-07-28T04:48:38.328Z,18.60
2022-07-28T04:51:06.872Z,18.74
2022-07-28T04:53:35.804Z,18.86
2022-07-28T04:56:04.568Z,19.00
2022-07-28T04:58:33.351Z,19.10
2022-07-28T05:01:02.170Z,19.19
2022-07-28T05:03:35.681Z,19.29
2022-07-28T05:06:05.349Z,19.41
2022-07-28T05:08:33.751Z,19.50
2022-07-28T05:11:02.150Z,19.58
2022-07-28T05:13:33.954Z,19.67
2022-07-28T05:16:03.645Z,19.82
2022-07-28T05:18:32.670Z,19.97
2022-07-28T05:21:01.058Z,20.11
2022-07-28T05:23:29.813Z,20.24
2022-07-28T05:25:58.203Z,20.39
2022-07-28T05:28:26.595Z,20.52
2022-07-28T05:30:55.030Z,20.65
2022-07-28T05:33:25.183Z,20.77
2022-07-28T05:36:00.907Z,20.87
2022-07-28T05:38:30.833Z,20.95
2022-07-28T05:41:00.468Z,21.06
2022-07-28T05:43:29.307Z,21.18
2022-07-28T05:45:57.720Z,21.30
2022-07-28T05:48:26.182Z,21.45
2022-07-28T05:50:54.977Z,21.63
2022-07-28T05:53:24.100Z,21.63
2022-07-28T05:55:59.622Z,21.68
2022-07-28T05:58:31.397Z,21.73
2022-07-28T06:01:01.814Z,21.76
2022-07-28T06:03:32.481Z,21.91
2022-07-28T06:06:16.213Z,22.21
2022-07-28T06:08:48.809Z,22.54
2022-07-28T06:11:22.004Z,22.86
2022-07-28T06:13:53.014Z,23.13
2022-07-28T06:16:23.462Z,23.36
2022-07-28T06:18:52.799Z,23.59
2022-07-28T06:21:23.538Z,23.77
2022-07-28T06:23:51.918Z,23.83
2022-07-28T06:26:23.468Z,23.86
2022-07-28T06:28:52.804Z,23.88
2022-07-28T06:31:21.193Z,24.03
2022-07-28T06:33:49.761Z,24.18
2022-07-28T06:36:18.224Z,24.37
2022-07-28T06:38:46.579Z,24.61
2022-07-28T06:41:15.165Z,24.94
2022-07-28T06:43:43.679Z,25.24
2022-07-28T06:46:12.250Z,25.40
2022-07-28T06:48:43.710Z,25.51
2022-07-28T06:51:13.145Z,25.61
2022-07-28T06:53:41.495Z,25.72
2022-07-28T06:56:13.868Z,25.85
2022-07-28T06:58:46.977Z,26.02
2022-07-28T07:01:16.435Z,26.16
2022-07-28T07:03:45.018Z,26.33
2022-07-28T07:06:13.524Z,26.35
2022-07-28T07:08:41.923Z,26.35
2022-07-28T07:11:11.621Z,26.49
2022-07-28T07:13:39.968Z,26.73
2022-07-28T07:16:08.502Z,27.00
2022-07-28T07:18:36.994Z,27.02
2022-07-28T07:21:05.365Z,27.14
2022-07-28T07:23:35.713Z,27.31
2022-07-28T07:26:04.697Z,27.44
2022-07-28T07:28:34.502Z,27.58
2022-07-28T07:31:04.053Z,27.62
2022-07-28T07:33:33.568Z,27.73
2022-07-28T07:36:02.150Z,27.78
2022-07-28T07:38:30.516Z,27.83
2022-07-28T07:40:59.992Z,27.89
2022-07-28T07:43:28.512Z,28.00
2022-07-28T07:45:57.041Z,28.19
2022-07-28T07:48:25.417Z,28.38
2022-07-28T07:50:54.376Z,28.77
2022-07-28T07:53:23.232Z,29.14
2022-07-28T07:55:52.372Z,29.42
2022-07-28T07:58:20.707Z,29.68
2022-07-28T08:00:49.216Z,29.85
2022-07-28T08:03:22.444Z,30.03
2022-07-28T08:05:55.889Z,30.16
2022-07-28T08:08:26.133Z,30.07
2022-07-28T08:10:54.540Z,30.08
2022-07-28T08:13:23.993Z,30.27
2022-07-28T08:15:52.487Z,30.33
2022-07-28T08:18:21.574Z,30.20
2022-07-28T08:20:49.935Z,29.95
2022-07-28T08:23:22.857Z,29.70
2022-07-28T08:25:55.342Z,29.61
2022-07-28T08:28:23.905Z,29.74
2022-07-28T08:30:52.734Z,29.85
2022-07-28T08:33:22.208Z,30.03
2022-07-28T08:35:50.996Z,30.27
2022-07-28T08:38:20.269Z,30.46
2022-07-28T08:40:50.447Z,30.70
2022-07-28T08:43:24.724Z,30.77
2022-07-28T08:45:58.292Z,30.83
2022-07-28T08:52:54.233Z,31.32
2022-07-28T08:56:26.776Z,31.34
2022-07-28T08:58:56.347Z,31.25
2022-07-28T09:01:25.379Z,31.29
2022-07-28T09:04:09.200Z,31.31
2022-07-28T09:06:43.000Z,31.40
2022-07-28T09:09:11.525Z,31.41
2022-07-28T09:11:39.994Z,31.42
2022-07-28T09:14:08.716Z,31.41
2022-07-28T09:16:38.640Z,31.56
2022-07-28T09:19:06.971Z,31.77
2022-07-28T09:21:35.540Z,31.52
2022-07-28T09:24:10.027Z,31.46
2022-07-28T09:26:38.527Z,31.42
2022-07-28T09:29:08.800Z,31.40
2022-07-28T09:32:16.638Z,31.42
2022-07-28T09:34:44.883Z,31.57
2022-07-28T09:37:27.621Z,31.76
2022-07-28T09:44:00.075Z,32.30
2022-07-28T09:46:29.979Z,32.59
2022-07-28T09:49:01.009Z,32.81
2022-07-28T09:51:33.607Z,32.88
2022-07-28T09:58:11.175Z,32.64
2022-07-28T10:00:42.981Z,32.56
2022-07-28T10:03:12.428Z,32.62
2022-07-28T10:05:41.396Z,32.72
2022-07-28T10:08:09.822Z,32.75
2022-07-28T10:10:38.176Z,32.81
2022-07-28T10:13:06.785Z,32.93
2022-07-28T10:15:53.953Z,33.22
2022-07-28T10:18:22.343Z,33.24
2022-07-28T10:20:51.512Z,33.24
2022-07-28T10:23:20.799Z,33.40
2022-07-28T10:25:51.551Z,33.40
2022-07-28T10:29:05.375Z,33.40
2022-07-28T10:31:41.378Z,33.46
2022-07-28T10:34:24.458Z,33.52
2022-07-28T10:36:56.446Z,33.57
2022-07-28T10:39:32.305Z,33.78
2022-07-28T10:42:04.056Z,34.16
2022-07-28T10:44:32.716Z,34.37
2022-07-28T10:47:02.900Z,34.44
2022-07-28T10:49:32.719Z,34.26
2022-07-28T10:52:06.737Z,34.26
2022-07-28T10:54:46.003Z,34.39
2022-07-28T10:57:17.032Z,34.55
2022-07-28T11:00:55.370Z,34.66
2022-07-28T11:03:45.228Z,35.08
2022-07-28T11:06:55.901Z,35.38
2022-07-28T11:09:24.344Z,35.18
2022-07-28T11:11:55.655Z,35.01
2022-07-28T11:14:24.878Z,35.04
2022-07-28T11:21:00.277Z,34.49
2022-07-28T11:24:06.908Z,34.10
2022-07-28T11:26:37.373Z,34.16
2022-07-28T11:29:08.653Z,34.18
2022-07-28T11:31:46.477Z,34.30
2022-07-28T11:34:20.091Z,34.35
2022-07-28T11:37:03.927Z,34.26
2022-07-28T11:39:42.867Z,34.09
2022-07-28T11:42:33.791Z,33.79
2022-07-28T11:45:37.876Z,33.33
2022-07-28T11:48:15.237Z,33.15
2022-07-28T11:51:04.148Z,33.20
2022-07-28T11:53:39.738Z,33.03
2022-07-28T11:56:11.294Z,32.80
2022-07-28T11:58:41.513Z,32.49
2022-07-28T12:01:18.025Z,32.21
2022-07-28T12:03:55.878Z,32.14
2022-07-28T12:06:29.578Z,32.29
2022-07-28T12:09:08.667Z,32.54
2022-07-28T12:11:39.116Z,32.72
2022-07-28T12:14:13.389Z,32.91
2022-07-28T12:16:44.847Z,32.84
2022-07-28T12:19:18.152Z,32.89
2022-07-28T12:21:49.603Z,33.06
2022-07-28T12:24:32.212Z,33.34
2022-07-28T12:27:16.475Z,33.78
2022-07-28T12:29:56.727Z,34.14
2022-07-28T12:32:35.478Z,34.17
2022-07-28T12:35:04.296Z,33.98
2022-07-28T12:37:32.921Z,33.68
2022-07-28T12:40:02.936Z,33.46
2022-07-28T12:42:32.623Z,33.18
2022-07-28T12:45:07.731Z,32.96
2022-07-28T12:47:36.744Z,33.03
2022-07-28T12:54:36.997Z,32.80
2022-07-28T12:57:50.852Z,32.87
2022-07-28T13:00:23.484Z,33.06
2022-07-28T13:02:56.164Z,33.03
2022-07-28T13:09:35.283Z,32.58
2022-07-28T13:15:17.089Z,31.56
2022-07-28T13:17:49.934Z,31.32
2022-07-28T13:20:18.786Z,31.16
2022-07-28T13:22:47.525Z,31.00
2022-07-28T13:25:16.665Z,30.81
2022-07-28T13:27:48.492Z,30.60
2022-07-28T13:33:49.665Z,30.18
2022-07-28T13:36:18.132Z,30.09
2022-07-28T13:38:46.569Z,29.98
2022-07-28T13:41:15.722Z,29.89
2022-07-28T13:48:26.667Z,29.66
2022-07-28T13:50:56.264Z,29.59
2022-07-28T13:53:25.401Z,29.50
2022-07-28T13:55:53.818Z,29.45
2022-07-28T13:58:23.317Z,29.36
2022-07-28T14:00:52.136Z,29.22
2022-07-28T14:03:20.796Z,29.13
2022-07-28T14:05:49.602Z,29.06
2022-07-28T14:08:19.994Z,28.97
2022-07-28T14:12:29.242Z,28.91
2022-07-28T14:14:57.733Z,28.78
2022-07-28T14:17:43.593Z,28.74
2022-07-28T14:21:23.580Z,28.68
2022-07-28T14:23:57.672Z,28.58
2022-07-28T14:26:40.978Z,28.41
2022-07-28T14:29:11.504Z,28.16
2022-07-28T14:31:40.395Z,27.89
2022-07-28T14:38:51.110Z,27.10
2022-07-28T14:40:57.814Z,26.68
2022-07-28T14:43:26.189Z,26.38
2022-07-28T14:46:12.473Z,26.05
2022-07-28T14:48:43.186Z,25.65
2022-07-28T14:51:12.499Z,25.28
2022-07-28T14:53:52.151Z,24.91
2022-07-28T14:56:20.695Z,24.59
2022-07-28T14:58:49.261Z,24.36
2022-07-28T15:01:18.259Z,24.16
2022-07-28T15:03:46.780Z,24.01
2022-07-28T15:06:15.143Z,23.88
2022-07-28T15:08:43.537Z,23.72
2022-07-28T15:11:11.936Z,23.54
2022-07-28T15:13:41.081Z,23.37
2022-07-28T15:16:09.660Z,23.27
2022-07-28T15:18:38.036Z,23.18
2022-07-28T15:21:08.760Z,23.11
2022-07-28T15:23:37.768Z,23.06
2022-07-28T15:26:10.040Z,22.95
2022-07-28T15:28:39.532Z,22.85
2022-07-28T15:31:08.682Z,22.77
2022-07-28T15:33:47.714Z,22.70
2022-07-28T15:37:06.253Z,22.61
2022-07-28T15:39:45.261Z,22.56
2022-07-28T15:42:13.989Z,22.52
2022-07-28T15:44:42.365Z,22.50
2022-07-28T15:47:10.972Z,22.45
2022-07-28T15:49:46.076Z,22.39
2022-07-28T15:57:19.980Z,22.21
2022-07-28T16:04:20.917Z,22.09
2022-07-28T16:10:30.885Z,22.04
2022-07-28T16:17:34.843Z,22.01
2022-07-28T16:21:09.245Z,21.99
2022-07-28T16:23:38.005Z,21.96
2022-07-28T16:26:08.928Z,21.95
2022-07-28T16:28:37.405Z,21.92
2022-07-28T16:31:06.613Z,21.89
2022-07-28T16:33:35.139Z,21.88
2022-07-28T16:36:03.804Z,21.87
2022-07-28T16:38:32.154Z,21.86
2022-07-28T16:41:46.620Z,21.87
2022-07-28T16:44:29.426Z,21.87
2022-07-28T16:46:58.529Z,21.88
2022-07-28T16:49:27.303Z,21.82
2022-07-28T16:51:56.307Z,21.77
2022-07-28T16:54:25.009Z,21.73
2022-07-28T16:56:55.627Z,21.69
2022-07-28T16:59:37.566Z,21.65
2022-07-28T17:02:19.439Z,21.60
2022-07-28T17:04:48.044Z,21.60
2022-07-28T17:07:16.735Z,21.62
2022-07-28T17:11:00.452Z,21.64
2022-07-28T17:13:29.587Z,21.67
2022-07-28T17:16:00.018Z,21.71
2022-07-28T17:18:29.165Z,21.77
2022-07-28T17:20:57.693Z,21.83
2022-07-28T17:25:04.963Z,21.90
2022-07-28T17:27:42.241Z,21.98
2022-07-28T17:30:13.253Z,22.03
2022-07-28T17:32:50.953Z,22.08
2022-07-28T17:35:34.517Z,22.12
2022-07-28T17:38:05.853Z,22.13
2022-07-28T17:40:34.457Z,22.14
2022-07-28T17:43:03.000Z,22.14
2022-07-28T17:45:31.402Z,22.17
2022-07-28T17:49:36.103Z,22.20
2022-07-28T17:52:06.267Z,22.12
2022-07-28T17:54:53.528Z,21.97
2022-07-28T17:57:22.550Z,21.87
2022-07-28T18:01:10.223Z,21.78
2022-07-28T18:05:33.496Z,21.63
2022-07-28T18:09:07.508Z,21.55
2022-07-28T18:16:08.045Z,21.40
2022-07-28T18:18:36.441Z,21.40
2022-07-28T18:26:11.133Z,21.33
2022-07-28T18:28:41.620Z,21.28
2022-07-28T18:31:10.099Z,21.27
2022-07-28T18:38:34.894Z,21.24
2022-07-28T18:45:42.286Z,21.15
2022-07-28T18:48:17.537Z,21.14
2022-07-28T18:50:47.544Z,21.13
2022-07-28T18:53:15.927Z,21.11
2022-07-28T18:55:44.439Z,21.06
2022-07-28T19:12:03.870Z,21.10
2022-07-28T19:15:12.465Z,21.15
2022-07-28T19:17:40.875Z,21.19
2022-07-28T19:28:21.747Z,21.35
2022-07-28T19:35:33.957Z,21.36
2022-07-28T19:44:14.991Z,21.38
2022-07-28T19:51:23.346Z,21.43
2022-07-28T19:58:25.830Z,21.50
2022-07-28T20:16:17.828Z,21.48
2022-07-28T20:19:58.872Z,21.48
2022-07-28T20:27:04.008Z,21.47
2022-07-28T20:29:32.387Z,21.46
2022-07-28T20:32:00.877Z,21.44
2022-07-28T20:34:29.840Z,21.42
2022-07-28T20:37:38.698Z,21.42
2022-07-28T20:40:08.917Z,21.42
2022-07-28T20:42:38.822Z,21.42
2022-07-28T20:46:15.166Z,21.44
2022-07-28T20:48:43.857Z,21.42
2022-07-28T20:51:12.261Z,21.39
2022-07-28T20:54:36.046Z,21.35
2022-07-28T21:06:29.247Z,21.14
2022-07-28T21:09:02.284Z,21.13
2022-07-28T21:11:35.126Z,21.12
2022-07-28T21:14:10.202Z,21.13
2022-07-28T21:21:11.899Z,21.02
2022-07-28T21:23:40.730Z,21.00
2022-07-28T21:35:26.046Z,20.91
2022-07-28T21:42:28.094Z,20.82
2022-07-28T21:45:11.316Z,20.75
2022-07-28T21:47:40.747Z,20.68
2022-07-28T21:50:45.857Z,20.62
2022-07-28T22:45:50.433Z,19.99
